Lubbock, TX (79424)

12:04 PM CDT on March 31, 2015 (GMT -0500)
Orchard Park | | Change Station
CLOSE
Current Station
Personal Weather Station
Location: Lubbock, TX
Elevation: 3253 ft
Nearby Weather Stations

Elev 3253 ft 33.49 °N, 101.90 °W | Updated 9 seconds ago

Partly Cloudy
Partly Cloudy
78.6 °F
Feels Like 79 °F
N
1.0
Wind Variable Wind from NW
Gusts 2.0 mph

Today
High -- | Low -- °F
--% Chance of Precip.
Yesterday
High -- | Low -- °F
Precip. -- in
7:36 AM 8:07 PM
Waxing Gibbous, 87% visible
Pressure 29.90 in
Visibility 10.0 miles
Clouds Scattered Clouds 26000 ft
Mostly Cloudy 30000 ft
Heat Index 79 °F
Dew Point 49 °F
Humidity 36%
Rainfall 0.00 in
Snow Depth Not available.
UV 4 out of 12
Pollen 11.10 out of 12
Air Quality Not available.
Flu Activity Not available.
METAR KLBB 311653Z VRB03KT 10SM SCT260 BKN300 24/08 A3001 RMK AO2 SLP125 T02440083

More Conditions Fewer Conditions

Pressure 29.90 in
Visibility 10.0 miles
Clouds Scattered Clouds 26000 ft
Mostly Cloudy 30000 ft
Heat Index 79 °F
Dew Point 49 °F
Humidity 36%
Rainfall 0.00 in
Snow Depth Not available.
UV 4 out of 12
Pollen 11.10 out of 12
Air Quality Not available.
Flu Activity Not available.
METAR KLBB 311653Z VRB03KT 10SM SCT260 BKN300 24/08 A3001 RMK AO2 SLP125 T02440083

More Conditions Fewer Conditions

10-Day Weather Forecast

Almanac

Astronomy

Mar. 31, 2015 Rise Set
Actual Time
Civil Twilight
Nautical Twilight
Astronomical Twilight
Moon
Length of Visible Light
Length of Day
Tomorrow will be .
, % of the Moon is Illuminated

Today's Extremes

State Highs State Lows

Community

WunderPhotos

Upload Photos

1,809,787 photos uploaded!

WunderBlogs® & News

Nearby

Air Quality

  Air Quality AQ Index Pollutant
Not available.

Snow Depth

Station Depth Elevation

Earthquake Activity

City Distance Mag. Time & Date
Minimum magnitude displayed is 2.5.

Coastal Water Temperatures

Place Temperature

Stations

Nearby Weather Stations

Station Location Temp. Windchill Dew Point Humidity Wind Precip. Elev Updated Type